createdAt,value
2022-09-11T00:00:00.417Z,76.86
2022-09-11T00:02:51.017Z,77.02
2022-09-11T00:05:32.098Z,76.93
2022-09-11T00:08:01.731Z,76.88
2022-09-11T00:10:32.306Z,76.94
2022-09-11T00:13:00.652Z,77.10
2022-09-11T00:15:31.392Z,77.15
2022-09-11T00:18:09.550Z,77.14
2022-09-11T00:21:00.728Z,77.04
2022-09-11T00:23:52.414Z,77.17
2022-09-11T00:26:23.314Z,77.10
2022-09-11T00:28:57.124Z,77.17
2022-09-11T00:31:31.099Z,77.01
2022-09-11T00:34:08.346Z,77.08
2022-09-11T00:36:45.818Z,77.40
2022-09-11T00:39:15.478Z,77.22
2022-09-11T00:41:47.295Z,77.17
2022-09-11T00:44:19.623Z,77.40
2022-09-11T00:47:03.257Z,77.34
2022-09-11T00:49:39.867Z,77.31
2022-09-11T00:52:15.675Z,77.27
2022-09-11T00:55:09.177Z,77.34
2022-09-11T00:57:44.801Z,77.42
2022-09-11T01:00:14.629Z,77.27
2022-09-11T01:02:47.385Z,77.43
2022-09-11T01:05:16.820Z,77.45
2022-09-11T01:07:54.868Z,77.41
2022-09-11T01:11:13.595Z,77.42
2022-09-11T01:14:34.515Z,77.59
2022-09-11T01:17:29.105Z,77.59
2022-09-11T01:20:45.432Z,77.55
2022-09-11T01:23:37.417Z,77.40
2022-09-11T01:26:49.594Z,77.56
2022-09-11T01:29:28.299Z,77.55
2022-09-11T01:32:23.332Z,77.47
2022-09-11T01:35:34.812Z,77.63
2022-09-11T01:38:12.576Z,77.59
2022-09-11T01:40:49.376Z,77.73
2022-09-11T01:43:24.154Z,77.63
2022-09-11T01:45:53.648Z,77.63
2022-09-11T01:48:30.104Z,77.80
2022-09-11T01:51:03.518Z,77.86
2022-09-11T01:53:45.833Z,77.87
2022-09-11T01:56:24.985Z,77.95
2022-09-11T01:59:04.986Z,77.87
2022-09-11T02:01:38.201Z,77.96
2022-09-11T02:04:10.797Z,78.04
2022-09-11T02:07:23.523Z,78.00
2022-09-11T02:10:06.638Z,78.12
2022-09-11T02:12:47.227Z,78.21
2022-09-11T02:15:19.453Z,78.23
2022-09-11T02:18:18.332Z,78.30
2022-09-11T02:20:52.942Z,78.33
2022-09-11T02:23:24.204Z,78.39
2022-09-11T02:25:57.317Z,78.46
2022-09-11T02:28:25.590Z,78.47
2022-09-11T02:30:54.936Z,78.38
2022-09-11T02:33:44.545Z,78.58
2022-09-11T02:36:23.035Z,78.56
2022-09-11T02:39:21.324Z,78.67
2022-09-11T02:42:21.014Z,78.71
2022-09-11T02:45:29.779Z,78.59
2022-09-11T02:48:24.985Z,78.75
2022-09-11T02:51:48.515Z,79.02
2022-09-11T02:55:20.659Z,78.95
2022-09-11T02:58:04.066Z,78.90
2022-09-11T03:00:32.829Z,78.86
2022-09-11T03:03:01.826Z,79.04
2022-09-11T03:05:30.384Z,79.19
2022-09-11T03:07:59.599Z,79.27
2022-09-11T03:10:28.125Z,79.09
2022-09-11T03:13:01.843Z,79.21
2022-09-11T03:15:34.213Z,79.29
2022-09-11T03:18:05.636Z,79.25
2022-09-11T03:20:34.281Z,79.31
2022-09-11T03:23:10.789Z,79.47
2022-09-11T03:25:41.179Z,79.66
2022-09-11T03:28:11.478Z,79.62
2022-09-11T03:31:43.525Z,79.88
2022-09-11T03:34:12.786Z,79.88
2022-09-11T03:36:44.049Z,79.89
2022-09-11T03:39:13.260Z,79.97
2022-09-11T03:42:04.414Z,80.09
2022-09-11T03:44:38.810Z,80.35
2022-09-11T03:47:10.107Z,80.39
2022-09-11T03:50:40.351Z,80.46
2022-09-11T03:53:50.561Z,80.74
2022-09-11T03:56:21.695Z,80.72
2022-09-11T03:58:55.833Z,80.86
2022-09-11T04:01:24.399Z,80.85
2022-09-11T04:03:55.774Z,80.88
2022-09-11T04:06:33.173Z,81.04
2022-09-11T04:09:01.783Z,81.13
2022-09-11T04:11:39.007Z,81.14
2022-09-11T04:14:12.413Z,81.35
2022-09-11T04:16:49.523Z,81.47
2022-09-11T04:19:19.108Z,81.53
2022-09-11T04:21:48.807Z,81.38
2022-09-11T04:24:20.399Z,81.30
2022-09-11T04:26:48.630Z,81.49
2022-09-11T04:29:23.171Z,81.68
2022-09-11T04:31:53.980Z,81.59
2022-09-11T04:34:26.755Z,81.60
2022-09-11T04:37:44.158Z,81.67
2022-09-11T04:40:14.478Z,81.79
2022-09-11T04:42:47.085Z,81.75
2022-09-11T04:45:16.205Z,81.63
2022-09-11T04:47:44.738Z,81.83
2022-09-11T04:50:13.836Z,81.79
2022-09-11T04:52:44.541Z,81.81
2022-09-11T04:55:13.551Z,81.92
2022-09-11T04:57:42.369Z,82.00
2022-09-11T05:00:13.199Z,82.06
2022-09-11T05:02:42.030Z,81.91
2022-09-11T05:05:11.140Z,82.11
2022-09-11T05:07:39.663Z,82.08
2022-09-11T05:10:14.100Z,82.11
2022-09-11T05:12:43.168Z,82.13
2022-09-11T05:15:14.129Z,82.04
2022-09-11T05:17:45.768Z,82.13
2022-09-11T05:20:17.553Z,82.45
2022-09-11T05:22:48.158Z,82.42
2022-09-11T05:25:19.009Z,82.31
2022-09-11T05:27:58.740Z,82.37
2022-09-11T05:30:30.615Z,82.24
2022-09-11T05:33:21.430Z,82.27
2022-09-11T05:36:33.751Z,82.32
2022-09-11T05:39:05.661Z,82.33
2022-09-11T05:41:35.576Z,82.33
2022-09-11T05:44:11.162Z,82.43
2022-09-11T05:46:42.927Z,82.40
2022-09-11T05:49:11.722Z,82.46
2022-09-11T05:51:43.046Z,82.48
2022-09-11T05:54:15.530Z,82.49
2022-09-11T05:56:49.790Z,82.57
2022-09-11T05:59:27.312Z,82.38
2022-09-11T06:01:56.968Z,82.32
2022-09-11T06:04:43.117Z,82.30
2022-09-11T06:07:12.213Z,82.22
2022-09-11T06:09:45.732Z,82.16
2022-09-11T06:12:13.974Z,81.96
2022-09-11T06:14:44.568Z,82.05
2022-09-11T06:17:13.230Z,82.13
2022-09-11T06:19:42.352Z,82.01
2022-09-11T06:22:11.146Z,82.11
2022-09-11T06:24:52.784Z,82.00
2022-09-11T06:27:29.592Z,82.14
2022-09-11T06:30:06.282Z,82.30
2022-09-11T06:32:37.303Z,82.50
2022-09-11T06:35:10.210Z,82.34
2022-09-11T06:37:40.268Z,82.08
2022-09-11T06:40:16.637Z,82.06
2022-09-11T06:42:54.462Z,82.15
2022-09-11T06:45:27.043Z,82.10
2022-09-11T06:47:58.315Z,82.00
2022-09-11T06:50:32.931Z,82.22
2022-09-11T06:53:08.820Z,82.82
2022-09-11T06:55:40.696Z,82.63
2022-09-11T06:58:09.730Z,81.84
2022-09-11T07:00:38.497Z,81.11
2022-09-11T07:03:13.857Z,80.93
2022-09-11T07:05:48.162Z,80.50
2022-09-11T07:08:16.385Z,80.37
2022-09-11T07:10:54.831Z,80.76
2022-09-11T07:13:26.189Z,80.72
2022-09-11T07:16:03.022Z,81.23
2022-09-11T07:18:52.344Z,81.63
2022-09-11T07:21:31.803Z,81.71
2022-09-11T07:24:02.658Z,81.62
2022-09-11T07:26:39.440Z,81.16
2022-09-11T07:29:15.378Z,81.02
2022-09-11T07:31:44.453Z,80.84
2022-09-11T07:34:13.421Z,80.45
2022-09-11T07:36:41.897Z,80.30
2022-09-11T07:39:10.947Z,80.42
2022-09-11T07:41:47.589Z,80.13
2022-09-11T07:44:18.735Z,79.85
2022-09-11T07:46:48.735Z,79.65
2022-09-11T07:49:28.405Z,79.85
2022-09-11T07:51:59.653Z,79.64
2022-09-11T07:54:35.746Z,79.95
2022-09-11T07:57:05.021Z,79.92
2022-09-11T07:59:33.997Z,79.58
2022-09-11T08:02:04.366Z,79.72
2022-09-11T08:04:35.751Z,79.72
2022-09-11T08:07:03.975Z,79.78
2022-09-11T08:09:37.119Z,79.67
2022-09-11T08:12:11.372Z,79.80
2022-09-11T08:14:41.323Z,79.69
2022-09-11T08:17:15.061Z,79.47
2022-09-11T08:19:44.771Z,79.38
2022-09-11T08:22:55.933Z,79.75
2022-09-11T08:25:25.212Z,80.10
2022-09-11T08:27:53.327Z,80.35
2022-09-11T08:30:23.139Z,80.35
2022-09-11T08:32:51.434Z,80.28
2022-09-11T08:35:20.549Z,80.67
2022-09-11T08:37:54.855Z,80.92
2022-09-11T08:40:24.013Z,80.65
2022-09-11T08:42:57.300Z,81.09
2022-09-11T08:45:31.697Z,80.82
2022-09-11T08:48:01.641Z,80.73
2022-09-11T08:50:40.641Z,80.59
2022-09-11T08:53:15.563Z,80.56
2022-09-11T08:55:56.581Z,80.16
2022-09-11T08:58:41.652Z,80.03
2022-09-11T09:01:48.457Z,79.47
2022-09-11T09:04:42.892Z,79.37
2022-09-11T09:07:51.660Z,79.55
2022-09-11T09:10:46.679Z,79.63
2022-09-11T09:13:40.020Z,79.67
2022-09-11T09:16:28.922Z,80.06
2022-09-11T09:19:10.320Z,80.06
2022-09-11T09:22:07.582Z,80.04
2022-09-11T09:24:46.785Z,80.29
2022-09-11T09:27:38.073Z,80.03
2022-09-11T09:30:35.923Z,79.93
2022-09-11T09:33:29.827Z,80.16
2022-09-11T09:36:24.610Z,80.08
2022-09-11T09:38:56.653Z,80.43
2022-09-11T09:41:49.879Z,81.05
2022-09-11T09:45:06.266Z,80.73
2022-09-11T09:47:41.464Z,80.78
2022-09-11T09:50:22.336Z,79.80
2022-09-11T09:52:51.483Z,79.15
2022-09-11T09:55:21.426Z,78.71
2022-09-11T09:57:50.718Z,78.04
2022-09-11T10:00:22.710Z,77.19
2022-09-11T10:02:56.715Z,77.34
2022-09-11T10:05:33.445Z,77.49
2022-09-11T10:08:06.775Z,77.52
2022-09-11T10:10:40.862Z,78.02
2022-09-11T10:13:25.139Z,77.56
2022-09-11T10:15:59.863Z,77.60
2022-09-11T10:18:41.882Z,77.60
2022-09-11T10:21:21.530Z,78.03
2022-09-11T10:23:55.373Z,77.81
2022-09-11T10:26:26.583Z,77.46
2022-09-11T10:29:01.457Z,77.22
2022-09-11T10:31:30.895Z,77.12
2022-09-11T10:34:00.737Z,77.43
2022-09-11T10:36:30.158Z,77.25
2022-09-11T10:39:01.359Z,77.38
2022-09-11T10:41:35.422Z,77.45
2022-09-11T10:44:13.207Z,77.26
2022-09-11T10:46:45.385Z,77.17
2022-09-11T10:49:22.331Z,76.94
2022-09-11T10:52:32.648Z,76.51
2022-09-11T10:55:54.543Z,76.00
2022-09-11T10:58:31.731Z,75.92
2022-09-11T11:01:00.319Z,75.56
2022-09-11T11:03:29.803Z,75.82
2022-09-11T11:06:29.633Z,75.35
2022-09-11T11:09:17.149Z,74.80
2022-09-11T11:12:20.531Z,74.64
2022-09-11T11:15:07.231Z,73.02
2022-09-11T11:17:54.535Z,73.59
2022-09-11T11:20:26.910Z,74.61
2022-09-11T11:23:32.808Z,74.39
2022-09-11T11:26:43.636Z,73.89
2022-09-11T11:29:40.172Z,74.28
2022-09-11T11:32:29.074Z,74.34
2022-09-11T11:35:23.207Z,74.03
2022-09-11T11:38:16.614Z,73.74
2022-09-11T11:40:54.309Z,73.78
2022-09-11T11:43:27.656Z,73.63
2022-09-11T11:45:58.461Z,73.56
2022-09-11T11:48:49.087Z,73.76
2022-09-11T11:52:00.439Z,73.68
2022-09-11T11:55:06.469Z,73.22
2022-09-11T11:57:45.676Z,72.95
2022-09-11T12:00:16.520Z,72.39
2022-09-11T12:03:01.862Z,72.39
2022-09-11T12:05:34.863Z,72.00
2022-09-11T12:08:19.125Z,71.55
2022-09-11T12:10:58.433Z,70.77
2022-09-11T12:13:41.296Z,70.99
2022-09-11T12:16:25.436Z,71.10
2022-09-11T12:19:12.754Z,71.24
2022-09-11T12:22:04.909Z,71.49
2022-09-11T12:24:52.926Z,71.65
2022-09-11T12:27:37.463Z,71.86
2022-09-11T12:30:24.041Z,71.77
2022-09-11T12:33:02.463Z,71.17
2022-09-11T12:35:39.253Z,70.96
2022-09-11T12:38:22.965Z,71.20
2022-09-11T12:41:04.901Z,71.35
2022-09-11T12:43:37.520Z,71.24
2022-09-11T12:46:14.124Z,71.21
2022-09-11T12:48:56.247Z,71.67
2022-09-11T12:51:42.752Z,71.43
2022-09-11T12:54:24.701Z,71.69
2022-09-11T12:57:04.640Z,71.73
2022-09-11T12:59:41.218Z,71.96
2022-09-11T13:02:43.456Z,72.21
2022-09-11T13:05:27.575Z,72.37
2022-09-11T13:08:01.627Z,72.46
2022-09-11T13:10:35.349Z,72.53
2022-09-11T13:13:44.521Z,72.76
2022-09-11T13:16:37.227Z,72.81
2022-09-11T13:19:13.802Z,72.92
2022-09-11T13:21:43.285Z,73.14
2022-09-11T13:24:35.821Z,73.32
2022-09-11T13:27:16.383Z,73.30
2022-09-11T13:29:48.669Z,73.68
2022-09-11T13:32:18.578Z,73.82
2022-09-11T13:34:54.112Z,73.87
2022-09-11T13:37:57.950Z,73.84
2022-09-11T13:40:55.648Z,73.93
2022-09-11T13:44:35.764Z,74.39
2022-09-11T13:47:15.087Z,74.66
2022-09-11T13:49:46.599Z,75.11
2022-09-11T13:52:15.422Z,75.13
2022-09-11T13:54:52.754Z,75.27
2022-09-11T13:57:30.965Z,75.38
2022-09-11T14:00:01.975Z,75.60
2022-09-11T14:02:53.512Z,75.57
2022-09-11T14:05:27.040Z,75.33
2022-09-11T14:08:43.487Z,75.17
2022-09-11T14:11:21.401Z,75.07
2022-09-11T14:13:56.745Z,74.84
2022-09-11T14:16:34.014Z,74.93
2022-09-11T14:19:09.534Z,75.03
2022-09-11T14:21:45.566Z,74.99
2022-09-11T14:24:35.418Z,74.97
2022-09-11T14:27:35.690Z,74.82
2022-09-11T14:30:36.321Z,75.19
2022-09-11T14:33:27.352Z,74.86
2022-09-11T14:36:07.922Z,74.69
2022-09-11T14:38:38.484Z,74.72
2022-09-11T14:41:07.941Z,74.64
2022-09-11T14:43:39.092Z,74.52
2022-09-11T14:46:08.679Z,74.49
2022-09-11T14:48:36.978Z,74.25
2022-09-11T14:51:12.751Z,74.24
2022-09-11T14:53:45.621Z,74.27
2022-09-11T14:56:14.916Z,73.93
2022-09-11T14:58:44.694Z,73.89
2022-09-11T15:01:38.292Z,73.55
2022-09-11T15:04:20.983Z,73.65
2022-09-11T15:06:52.101Z,73.80
2022-09-11T15:09:24.975Z,73.78
2022-09-11T15:11:53.468Z,73.43
2022-09-11T15:14:38.627Z,73.11
2022-09-11T15:17:16.102Z,73.36
2022-09-11T15:19:50.097Z,73.50
2022-09-11T15:22:20.316Z,73.46
2022-09-11T15:24:48.920Z,73.39
2022-09-11T15:27:19.242Z,73.69
2022-09-11T15:29:47.524Z,73.68
2022-09-11T15:32:15.474Z,73.83
2022-09-11T15:34:45.498Z,73.73
2022-09-11T15:37:15.252Z,73.59
2022-09-11T15:39:45.869Z,73.55
2022-09-11T15:42:14.701Z,73.66
2022-09-11T15:44:42.790Z,73.71
2022-09-11T15:47:11.561Z,73.59
2022-09-11T15:49:42.050Z,73.57
2022-09-11T15:52:10.620Z,73.59
2022-09-11T15:54:38.703Z,73.64
2022-09-11T15:57:08.011Z,73.62
2022-09-11T15:59:40.314Z,73.68
2022-09-11T16:02:09.511Z,73.71
2022-09-11T16:04:37.969Z,73.93
2022-09-11T16:07:07.202Z,73.90
2022-09-11T16:09:36.109Z,73.84
2022-09-11T16:12:08.423Z,73.82
2022-09-11T16:14:38.568Z,73.89
2022-09-11T16:17:08.009Z,73.93
2022-09-11T16:19:38.894Z,74.13
2022-09-11T16:22:08.677Z,74.26
2022-09-11T16:24:37.911Z,74.26
2022-09-11T16:27:11.297Z,74.14
2022-09-11T16:30:20.339Z,74.30
2022-09-11T16:32:38.203Z,74.46
2022-09-11T16:35:14.312Z,74.41
2022-09-11T16:37:44.601Z,74.19
2022-09-11T16:40:16.590Z,74.46
2022-09-11T16:42:47.908Z,74.42
2022-09-11T16:45:16.432Z,74.45
2022-09-11T16:47:44.287Z,74.40
2022-09-11T16:50:13.398Z,74.32
2022-09-11T16:52:43.802Z,74.49
2022-09-11T16:55:13.239Z,74.62
2022-09-11T16:57:44.513Z,74.49
2022-09-11T17:00:14.742Z,74.58
2022-09-11T17:02:44.049Z,74.82
2022-09-11T17:05:12.703Z,74.94
2022-09-11T17:07:42.085Z,74.90
2022-09-11T17:10:11.595Z,74.87
2022-09-11T17:12:40.551Z,75.07
2022-09-11T17:15:13.454Z,75.22
2022-09-11T17:17:43.808Z,75.30
2022-09-11T17:20:12.768Z,75.31
2022-09-11T17:22:40.569Z,75.39
2022-09-11T17:25:09.831Z,75.42
2022-09-11T17:27:37.964Z,75.54
2022-09-11T17:30:11.487Z,75.66
2022-09-11T17:32:40.352Z,75.85
2022-09-11T17:35:08.388Z,75.98
2022-09-11T17:37:36.897Z,76.12
2022-09-11T17:40:07.583Z,76.10
2022-09-11T17:42:35.814Z,76.12
2022-09-11T17:45:05.838Z,76.11
2022-09-11T17:47:34.596Z,76.26
2022-09-11T17:50:04.026Z,76.46
2022-09-11T17:52:37.829Z,76.62
2022-09-11T17:55:08.020Z,76.69
2022-09-11T17:57:36.585Z,76.76
2022-09-11T18:00:06.501Z,76.67
2022-09-11T18:02:40.723Z,76.87
2022-09-11T18:05:10.109Z,76.83
2022-09-11T18:07:39.684Z,77.01
2022-09-11T18:10:09.906Z,77.18
2022-09-11T18:12:40.227Z,77.14
2022-09-11T18:15:08.877Z,77.38
2022-09-11T18:17:38.464Z,77.37
2022-09-11T18:20:08.120Z,77.41
2022-09-11T18:22:39.726Z,77.59
2022-09-11T18:25:10.033Z,77.48
2022-09-11T18:27:39.861Z,77.44
2022-09-11T18:30:09.799Z,77.64
2022-09-11T18:32:40.711Z,77.46
2022-09-11T18:35:10.380Z,77.62
2022-09-11T18:37:39.437Z,77.88
2022-09-11T18:40:09.582Z,77.80
2022-09-11T18:42:40.978Z,78.23
2022-09-11T18:45:10.313Z,78.18
2022-09-11T18:47:40.790Z,78.14
2022-09-11T18:50:09.942Z,78.38
2022-09-11T18:52:38.270Z,78.33
2022-09-11T18:55:06.488Z,78.22
2022-09-11T18:57:40.140Z,78.42
2022-09-11T19:00:14.204Z,78.37
2022-09-11T19:02:43.170Z,78.33
2022-09-11T19:05:11.274Z,78.33
2022-09-11T19:07:40.373Z,78.34
2022-09-11T19:10:12.584Z,78.50
2022-09-11T19:12:42.741Z,79.10
2022-09-11T19:15:11.167Z,79.01
2022-09-11T19:17:39.027Z,78.83
2022-09-11T19:20:10.260Z,78.74
2022-09-11T19:22:39.353Z,78.99
2022-09-11T19:25:10.172Z,78.99
2022-09-11T19:27:39.888Z,79.05
2022-09-11T19:30:08.899Z,79.11
2022-09-11T19:32:41.414Z,79.15
2022-09-11T19:35:10.802Z,79.67
2022-09-11T19:37:39.653Z,79.95
2022-09-11T19:40:09.447Z,80.30
2022-09-11T19:42:38.350Z,80.52
2022-09-11T19:45:09.448Z,80.56
2022-09-11T19:47:37.721Z,80.62
2022-09-11T19:50:08.700Z,80.76
2022-09-11T19:52:36.478Z,80.73
2022-09-11T19:55:05.349Z,81.16
2022-09-11T19:57:33.841Z,81.09
2022-09-11T20:00:03.544Z,81.66
2022-09-11T20:02:35.029Z,81.64
2022-09-11T20:05:44.465Z,81.60
2022-09-11T20:08:16.070Z,81.70
2022-09-11T20:10:49.129Z,81.77
2022-09-11T20:13:17.557Z,81.83
2022-09-11T20:15:46.266Z,82.03
2022-09-11T20:18:15.748Z,82.49
2022-09-11T20:20:48.865Z,82.55
2022-09-11T20:23:19.721Z,82.16
2022-09-11T20:25:49.547Z,82.90
2022-09-11T20:28:19.178Z,82.62
2022-09-11T20:30:48.513Z,82.34
2022-09-11T20:33:18.457Z,82.49
2022-09-11T20:36:11.486Z,82.82
2022-09-11T20:38:39.351Z,83.04
2022-09-11T20:41:11.603Z,82.77
2022-09-11T20:43:43.618Z,82.90
2022-09-11T20:46:12.432Z,83.21
2022-09-11T20:48:40.826Z,83.38
2022-09-11T20:51:12.719Z,83.26
2022-09-11T20:53:45.758Z,83.17
2022-09-11T20:56:16.667Z,83.48
2022-09-11T20:58:44.514Z,83.46
2022-09-11T21:01:16.458Z,83.31
2022-09-11T21:03:57.583Z,83.48
2022-09-11T21:06:29.565Z,83.57
2022-09-11T21:09:07.411Z,83.57
2022-09-11T21:11:37.332Z,83.49
2022-09-11T21:14:07.727Z,83.36
2022-09-11T21:16:36.887Z,83.34
2022-09-11T21:19:08.243Z,83.37
2022-09-11T21:21:40.496Z,83.47
2022-09-11T21:24:12.681Z,83.64
2022-09-11T21:26:41.043Z,83.69
2022-09-11T21:29:13.234Z,83.89
2022-09-11T21:31:43.522Z,83.97
2022-09-11T21:34:13.870Z,84.10
2022-09-11T21:36:44.614Z,84.19
2022-09-11T21:39:13.201Z,84.24
2022-09-11T21:41:41.964Z,84.33
2022-09-11T21:44:10.819Z,84.30
2022-09-11T21:46:39.720Z,84.37
2022-09-11T21:49:12.787Z,84.49
2022-09-11T21:51:43.659Z,84.61
2022-09-11T21:54:13.363Z,84.62
2022-09-11T21:56:42.089Z,84.55
2022-09-11T21:59:10.528Z,84.78
2022-09-11T22:01:39.203Z,84.79
2022-09-11T22:04:07.564Z,84.82
2022-09-11T22:06:41.970Z,84.75
2022-09-11T22:09:11.647Z,85.01
2022-09-11T22:11:40.054Z,85.12
2022-09-11T22:14:08.251Z,85.04
2022-09-11T22:16:37.417Z,85.06
2022-09-11T22:19:08.422Z,85.18
2022-09-11T22:21:40.039Z,85.10
2022-09-11T22:24:08.161Z,85.16
2022-09-11T22:26:36.579Z,85.30
2022-09-11T22:29:04.901Z,85.33
2022-09-11T22:31:34.937Z,85.37
2022-09-11T22:34:04.704Z,85.44
2022-09-11T22:36:32.654Z,85.59
2022-09-11T22:39:04.926Z,85.59
2022-09-11T22:41:33.809Z,85.62
2022-09-11T22:44:02.590Z,85.71
2022-09-11T22:46:30.383Z,85.85
2022-09-11T22:48:58.309Z,85.76
2022-09-11T22:51:27.997Z,86.02
2022-09-11T22:53:56.828Z,85.98
2022-09-11T22:56:24.634Z,85.98
2022-09-11T22:58:53.366Z,86.00
2022-09-11T23:01:22.785Z,86.12
2022-09-11T23:03:54.694Z,86.06
2022-09-11T23:06:42.206Z,86.12
2022-09-11T23:09:13.300Z,86.17
2022-09-11T23:11:45.539Z,86.26
2022-09-11T23:14:14.909Z,86.22
2022-09-11T23:16:44.518Z,86.37
2022-09-11T23:19:17.527Z,86.09
2022-09-11T23:21:46.569Z,86.30
2022-09-11T23:24:15.473Z,86.36
2022-09-11T23:26:45.493Z,86.51
2022-09-11T23:29:17.076Z,86.45
2022-09-11T23:31:48.711Z,86.45
2022-09-11T23:34:17.596Z,86.53
2022-09-11T23:36:46.056Z,86.62
2022-09-11T23:39:15.218Z,86.69
2022-09-11T23:41:43.087Z,86.54
2022-09-11T23:44:12.663Z,86.60
2022-09-11T23:46:41.013Z,86.82
2022-09-11T23:49:16.150Z,86.81
2022-09-11T23:51:44.194Z,86.74
2022-09-11T23:54:12.086Z,86.80
2022-09-11T23:56:39.980Z,86.92
2022-09-11T23:59:11.144Z,86.99
